Jepson Prairie Reserve, California Weather observations

Data are for 10 minute period ending at time listed.
 Day   Time   Solar   Ave.   Ave.  Ave.  Vector  Max.   Baro.   Total    
  of    of     Rad.   Air    Rel.  Wind   Wind   Wind  Press.  Precip.   
Year   Day            Temp.  Hum.  Speed  Dir.   Gust                    
2015   (PST)  Kw/m2    F      %     mph   deg.    mph    mb.     in.     
-------------------------------------------------------------------------
 145    0:00   0.00   53.9    85   26.8   223    35.7   1009.8    0.00 
 145    0:10   0.00   53.7    85   27.6   222    35.4   1009.5    0.00 
 145    0:20   0.00   53.5    85   25.8   223    33.2   1009.5    0.00 
 145    0:30   0.00   53.2    86   26.0   222    32.9   1009.5    0.00 
 145    0:40   0.00   53.5    86   25.1   220    31.4   1009.5    0.00 
 145    0:50   0.00   53.6    86   22.8   221    28.7   1009.5    0.00 
 145    1:00   0.00   53.9    86   22.9   220    31.0   1009.5    0.00 
 145    1:10   0.00   53.9    85   24.3   223    30.1   1009.5    0.00 
 145    1:20   0.00   53.7    85   23.6   223    31.9   1009.5    0.00 
 145    1:30   0.00   53.2    86   24.8   224    33.3   1009.5    0.00 
 145    1:40   0.00   53.1    86   25.4   224    32.0   1009.5    0.00 
 145    1:50   0.00   53.2    86   24.1   223    32.2   1009.5    0.00 
 145    2:00   0.00   53.1    86   25.3   223    34.1   1009.5    0.00 
 145    2:10   0.00   53.0    87   24.1   223    31.5   1009.5    0.00 
 145    2:20   0.00   53.4    86   23.9   216    33.4   1009.5    0.00 
 145    2:30   0.00   53.2    86   23.9   216    34.1   1009.5    0.00 
 145    2:40   0.00   53.3    86   23.0   215    32.7   1009.5    0.00 
 145    2:50   0.00   53.4    86   20.7   214    27.5   1009.8    0.00 
 145    3:00   0.00   53.5    86   20.7   209    30.0   1009.8    0.00 
 145    3:10   0.00   53.4    85   22.6   204    28.7   1009.8    0.00 
 145    3:20   0.00   53.4    85   20.5   208    27.7   1009.8    0.00 
 145    3:30   0.00   53.4    84   18.8   210    26.1   1010.2    0.00 
 145    3:40   0.00   53.4    84   20.9   211    26.0   1009.8    0.00 
 145    3:50   0.00   53.3    84   22.4   210    28.0   1009.8    0.00 
 145    4:00   0.00   53.2    84   20.6   209    26.5   1009.8    0.00 
 145    4:10   0.00   53.0    84   20.4   207    26.1   1009.8    0.00 
 145    4:20   0.00   52.8    85   20.2   207    26.8   1009.8    0.00 
 145    4:30   0.00   52.8    85   19.2   209    27.2   1009.8    0.00 
 145    4:40   0.00   52.7    85   20.8   209    28.4   1009.8    0.00 
 145    4:50   0.00   52.6    85   20.9   212    26.7   1009.8    0.00 
 145    5:00   0.01   52.3    86   20.9   211    26.9   1010.2    0.00 
 145    5:10   0.02   52.4    86   19.9   212    27.8   1010.2    0.00 
 145    5:20   0.04   52.4    87   19.8   216    25.2   1010.2    0.00 
 145    5:30   0.05   52.4    86   20.1   217    26.9   1010.2    0.00 
 145    5:40   0.07   52.6    86   20.5   215    27.0   1010.2    0.00 
 145    5:50   0.06   52.9    85   21.5   215    27.6   1010.2    0.00 
 145    6:00   0.07   53.2    85   19.4   215    26.2   1010.5    0.00 
 145    6:10   0.07   53.5    84   19.4   213    26.0   1010.5    0.00 
 145    6:20   0.07   53.7    84   19.4   212    25.5   1010.5    0.00 
 145    6:30   0.08   53.8    83   18.4   214    24.0   1010.8    0.00 
 145    6:40   0.09   54.2    83   17.6   216    23.2   1010.8    0.00 
 145    6:50   0.11   54.4    82   17.1   224    22.9   1011.2    0.00 
 145    7:00   0.14   54.4    82   18.4   216    23.5   1011.2    0.00 
 145    7:10   0.16   54.8    81   17.4   216    21.8   1011.2    0.00 
 145    7:20   0.19   55.3    80   16.4   212    22.9   1011.2    0.00 
 145    7:30   0.21   55.7    79   17.7   208    23.2   1011.5    0.00 
 145    7:40   0.24   55.7    79   18.4   209    23.1   1011.5    0.00 
 145    7:50   0.28   56.3    78   17.2   212    22.4   1011.5    0.00 
 145    8:00   0.33   56.7    77   19.1   209    24.0   1011.5    0.00 
 145    8:10   0.39   57.2    76   18.7   217    24.3   1011.9    0.00 
 145    8:20   0.42   57.7    74   18.7   212    25.6   1011.9    0.00 
 145    8:30   0.60   58.4    73   19.5   215    24.9   1011.9    0.00 
 145    8:40   0.63   59.7    70   17.6   220    22.4   1011.9    0.00 
 145    8:50   0.66   60.1    69   20.6   230    27.4   1011.9    0.00 
 145    9:00   0.69   60.2    69   18.7   225    24.0   1011.9    0.00 

Return to Jepson Prairie Reserve graphs page.


Western Regional Climate Center,wrcc@dri.edu